sensor_id;sensor_type;location;lat;lon;timestamp;pressure;altitude;pressure_sealevel;temperature;humidity
52651;BME280;38537;47.226;39.702;2023-04-04T00:00:40;100455.47;;;16.26;53.72
52651;BME280;38537;47.226;39.702;2023-04-04T00:03:08;100451.84;;;16.25;53.42
52651;BME280;38537;47.226;39.702;2023-04-04T00:05:36;100454.41;;;15.97;54.23
52651;BME280;38537;47.226;39.702;2023-04-04T00:08:03;100467.03;;;15.91;54.38
52651;BME280;38537;47.226;39.702;2023-04-04T00:10:30;100477.34;;;16.08;54.16
52651;BME280;38537;47.226;39.702;2023-04-04T00:12:57;100486.75;;;15.91;54.69
52651;BME280;38537;47.226;39.702;2023-04-04T00:15:25;100469.25;;;15.56;55.31
52651;BME280;38537;47.226;39.702;2023-04-04T00:17:53;100494.34;;;15.61;55.50
52651;BME280;38537;47.226;39.702;2023-04-04T00:20:20;100491.44;;;15.02;56.55
52651;BME280;38537;47.226;39.702;2023-04-04T00:22:47;100512.19;;;14.72;57.62
52651;BME280;38537;47.226;39.702;2023-04-04T00:25:14;100518.81;;;14.50;58.59
52651;BME280;38537;47.226;39.702;2023-04-04T00:27:41;100512.13;;;14.20;59.64
52651;BME280;38537;47.226;39.702;2023-04-04T00:30:09;100511.16;;;14.33;59.33
52651;BME280;38537;47.226;39.702;2023-04-04T00:32:38;100518.41;;;14.17;59.49
52651;BME280;38537;47.226;39.702;2023-04-04T00:35:05;100515.94;;;14.07;59.57
52651;BME280;38537;47.226;39.702;2023-04-04T00:37:33;100497.22;;;13.94;60.12
52651;BME280;38537;47.226;39.702;2023-04-04T00:40:00;100511.78;;;13.96;59.52
52651;BME280;38537;47.226;39.702;2023-04-04T00:42:28;100521.00;;;13.79;60.70
52651;BME280;38537;47.226;39.702;2023-04-04T00:44:55;100512.47;;;13.53;61.22
52651;BME280;38537;47.226;39.702;2023-04-04T00:47:23;100485.47;;;13.26;62.04
52651;BME280;38537;47.226;39.702;2023-04-04T00:49:53;100491.63;;;13.37;62.18
52651;BME280;38537;47.226;39.702;2023-04-04T00:52:20;100487.69;;;13.47;62.35
52651;BME280;38537;47.226;39.702;2023-04-04T00:54:49;100501.44;;;13.57;61.91
52651;BME280;38537;47.226;39.702;2023-04-04T00:57:16;100515.16;;;13.58;61.88
52651;BME280;38537;47.226;39.702;2023-04-04T00:59:43;100496.69;;;13.26;62.48
52651;BME280;38537;47.226;39.702;2023-04-04T01:02:11;100516.75;;;13.42;62.69
52651;BME280;38537;47.226;39.702;2023-04-04T01:04:39;100522.31;;;13.33;62.83
52651;BME280;38537;47.226;39.702;2023-04-04T01:07:06;100511.66;;;13.22;63.20
52651;BME280;38537;47.226;39.702;2023-04-04T01:09:33;100505.31;;;13.08;63.36
52651;BME280;38537;47.226;39.702;2023-04-04T01:12:01;100505.06;;;13.18;63.57
52651;BME280;38537;47.226;39.702;2023-04-04T01:14:30;100501.94;;;13.59;62.29
52651;BME280;38537;47.226;39.702;2023-04-04T01:16:58;100532.91;;;13.85;61.42
52651;BME280;38537;47.226;39.702;2023-04-04T01:19:35;100530.31;;;13.57;63.10
52651;BME280;38537;47.226;39.702;2023-04-04T01:22:09;100534.56;;;13.46;63.12
52651;BME280;38537;47.226;39.702;2023-04-04T01:24:41;100527.66;;;13.52;62.75
52651;BME280;38537;47.226;39.702;2023-04-04T01:27:09;100526.56;;;13.70;62.19
52651;BME280;38537;47.226;39.702;2023-04-04T01:29:42;100518.78;;;13.67;61.76
52651;BME280;38537;47.226;39.702;2023-04-04T01:32:17;100515.16;;;13.67;62.83
52651;BME280;38537;47.226;39.702;2023-04-04T01:34:55;100527.19;;;13.59;62.47
52651;BME280;38537;47.226;39.702;2023-04-04T01:37:39;100521.78;;;13.31;64.16
52651;BME280;38537;47.226;39.702;2023-04-04T01:40:23;100513.06;;;13.33;64.40
52651;BME280;38537;47.226;39.702;2023-04-04T01:42:53;100526.31;;;13.41;62.94
52651;BME280;38537;47.226;39.702;2023-04-04T01:45:22;100505.91;;;13.18;62.76
52651;BME280;38537;47.226;39.702;2023-04-04T01:47:50;100510.41;;;13.05;63.77
52651;BME280;38537;47.226;39.702;2023-04-04T01:50:21;100529.81;;;12.93;64.04
52651;BME280;38537;47.226;39.702;2023-04-04T01:52:49;100527.00;;;12.93;64.34
52651;BME280;38537;47.226;39.702;2023-04-04T01:55:16;100518.41;;;12.90;64.48
52651;BME280;38537;47.226;39.702;2023-04-04T01:57:43;100524.50;;;13.14;63.93
52651;BME280;38537;47.226;39.702;2023-04-04T02:00:11;100517.16;;;13.04;63.25
52651;BME280;38537;47.226;39.702;2023-04-04T02:02:42;100532.00;;;13.05;64.09
52651;BME280;38537;47.226;39.702;2023-04-04T02:05:11;100534.56;;;13.46;62.97
52651;BME280;38537;47.226;39.702;2023-04-04T02:07:39;100535.56;;;13.42;62.64
52651;BME280;38537;47.226;39.702;2023-04-04T02:10:18;100558.41;;;13.66;62.25
52651;BME280;38537;47.226;39.702;2023-04-04T02:12:46;100539.44;;;13.63;62.07
52651;BME280;38537;47.226;39.702;2023-04-04T02:15:14;100535.78;;;13.62;61.80
52651;BME280;38537;47.226;39.702;2023-04-04T02:17:46;100541.03;;;14.12;60.77
52651;BME280;38537;47.226;39.702;2023-04-04T02:20:14;100561.75;;;14.42;59.97
52651;BME280;38537;47.226;39.702;2023-04-04T02:22:41;100568.56;;;14.50;59.85
52651;BME280;38537;47.226;39.702;2023-04-04T02:25:08;100562.72;;;14.29;60.25
52651;BME280;38537;47.226;39.702;2023-04-04T02:27:35;100551.63;;;14.32;59.74
52651;BME280;38537;47.226;39.702;2023-04-04T02:30:04;100566.81;;;14.14;60.93
52651;BME280;38537;47.226;39.702;2023-04-04T02:32:32;100556.22;;;14.11;60.24
52651;BME280;38537;47.226;39.702;2023-04-04T02:34:59;100549.91;;;13.97;60.20
52651;BME280;38537;47.226;39.702;2023-04-04T02:37:29;100555.53;;;13.97;60.18
52651;BME280;38537;47.226;39.702;2023-04-04T02:39:57;100546.78;;;13.98;60.28
52651;BME280;38537;47.226;39.702;2023-04-04T02:42:24;100542.31;;;13.97;60.09
52651;BME280;38537;47.226;39.702;2023-04-04T02:44:52;100543.97;;;13.98;59.71
52651;BME280;38537;47.226;39.702;2023-04-04T02:47:20;100561.25;;;13.75;60.28
52651;BME280;38537;47.226;39.702;2023-04-04T02:49:47;100567.00;;;13.69;60.90
52651;BME280;38537;47.226;39.702;2023-04-04T02:52:15;100579.03;;;13.61;61.22
52651;BME280;38537;47.226;39.702;2023-04-04T02:54:46;100552.31;;;13.33;61.39
52651;BME280;38537;47.226;39.702;2023-04-04T02:57:24;100576.81;;;13.50;61.47
52651;BME280;38537;47.226;39.702;2023-04-04T02:59:51;100555.63;;;13.35;61.64
52651;BME280;38537;47.226;39.702;2023-04-04T03:02:18;100569.38;;;13.45;61.59
52651;BME280;38537;47.226;39.702;2023-04-04T03:04:46;100584.41;;;13.49;61.55
52651;BME280;38537;47.226;39.702;2023-04-04T03:07:13;100584.69;;;13.39;61.91
52651;BME280;38537;47.226;39.702;2023-04-04T03:09:40;100583.59;;;13.49;61.61
52651;BME280;38537;47.226;39.702;2023-04-04T03:12:11;100551.09;;;13.17;62.05
52651;BME280;38537;47.226;39.702;2023-04-04T03:14:38;100574.75;;;13.11;62.51
52651;BME280;38537;47.226;39.702;2023-04-04T03:17:06;100577.50;;;13.02;62.71
52651;BME280;38537;47.226;39.702;2023-04-04T03:19:35;100578.72;;;12.87;63.24
52651;BME280;38537;47.226;39.702;2023-04-04T03:22:02;100552.28;;;12.80;63.64
52651;BME280;38537;47.226;39.702;2023-04-04T03:24:32;100580.31;;;13.02;63.22
52651;BME280;38537;47.226;39.702;2023-04-04T03:26:59;100576.31;;;12.72;63.86
52651;BME280;38537;47.226;39.702;2023-04-04T03:29:29;100586.09;;;12.61;64.19
52651;BME280;38537;47.226;39.702;2023-04-04T03:31:57;100592.06;;;12.46;64.91
52651;BME280;38537;47.226;39.702;2023-04-04T03:34:24;100584.38;;;12.51;64.56
52651;BME280;38537;47.226;39.702;2023-04-04T03:36:53;100573.69;;;12.76;63.53
52651;BME280;38537;47.226;39.702;2023-04-04T03:39:20;100563.94;;;12.95;63.02
52651;BME280;38537;47.226;39.702;2023-04-04T03:41:47;100588.72;;;13.24;62.61
52651;BME280;38537;47.226;39.702;2023-04-04T03:44:14;100579.66;;;13.27;61.80
52651;BME280;38537;47.226;39.702;2023-04-04T03:46:41;100599.50;;;13.31;62.73
52651;BME280;38537;47.226;39.702;2023-04-04T03:49:11;100594.13;;;13.21;62.11
52651;BME280;38537;47.226;39.702;2023-04-04T03:51:39;100596.28;;;13.46;61.74
52651;BME280;38537;47.226;39.702;2023-04-04T03:54:06;100589.38;;;13.52;61.64
52651;BME280;38537;47.226;39.702;2023-04-04T03:56:33;100588.81;;;13.72;61.29
52651;BME280;38537;47.226;39.702;2023-04-04T03:59:04;100582.75;;;13.88;60.94
52651;BME280;38537;47.226;39.702;2023-04-04T04:01:32;100581.00;;;13.61;61.36
52651;BME280;38537;47.226;39.702;2023-04-04T04:03:59;100587.09;;;14.11;60.36
52651;BME280;38537;47.226;39.702;2023-04-04T04:06:27;100585.50;;;14.19;59.93
52651;BME280;38537;47.226;39.702;2023-04-04T04:08:54;100592.34;;;14.44;59.45
52651;BME280;38537;47.226;39.702;2023-04-04T04:11:22;100583.19;;;14.21;59.99
52651;BME280;38537;47.226;39.702;2023-04-04T04:13:49;100591.75;;;14.16;60.04
52651;BME280;38537;47.226;39.702;2023-04-04T04:16:17;100600.31;;;14.11;60.40
52651;BME280;38537;47.226;39.702;2023-04-04T04:18:45;100599.00;;;14.08;59.97
52651;BME280;38537;47.226;39.702;2023-04-04T04:21:18;100621.06;;;13.92;60.64
52651;BME280;38537;47.226;39.702;2023-04-04T04:23:45;100613.09;;;13.77;60.37
52651;BME280;38537;47.226;39.702;2023-04-04T04:26:13;100613.03;;;13.60;61.34
52651;BME280;38537;47.226;39.702;2023-04-04T04:28:40;100611.75;;;13.44;61.30
52651;BME280;38537;47.226;39.702;2023-04-04T04:31:12;100623.81;;;13.44;61.75
52651;BME280;38537;47.226;39.702;2023-04-04T04:33:42;100619.06;;;13.22;62.15
52651;BME280;38537;47.226;39.702;2023-04-04T04:36:10;100599.50;;;13.31;62.46
52651;BME280;38537;47.226;39.702;2023-04-04T04:38:55;100608.97;;;13.44;61.87
52651;BME280;38537;47.226;39.702;2023-04-04T04:41:25;100605.88;;;13.23;62.07
52651;BME280;38537;47.226;39.702;2023-04-04T04:43:54;100611.97;;;13.25;61.81
52651;BME280;38537;47.226;39.702;2023-04-04T04:46:24;100622.09;;;13.12;62.89
52651;BME280;38537;47.226;39.702;2023-04-04T04:48:52;100613.38;;;13.14;62.67
52651;BME280;38537;47.226;39.702;2023-04-04T04:51:24;100637.19;;;13.16;63.01
52651;BME280;38537;47.226;39.702;2023-04-04T04:53:53;100620.22;;;12.99;63.34
52651;BME280;38537;47.226;39.702;2023-04-04T04:56:22;100622.75;;;13.09;63.13
52651;BME280;38537;47.226;39.702;2023-04-04T04:58:52;100640.41;;;13.32;62.72
52651;BME280;38537;47.226;39.702;2023-04-04T05:01:25;100632.75;;;13.24;63.05
52651;BME280;38537;47.226;39.702;2023-04-04T05:03:54;100611.63;;;13.18;63.26
52651;BME280;38537;47.226;39.702;2023-04-04T05:06:29;100615.72;;;13.43;62.69
52651;BME280;38537;47.226;39.702;2023-04-04T05:08:57;100609.31;;;13.42;62.44
52651;BME280;38537;47.226;39.702;2023-04-04T05:11:31;100623.22;;;13.56;62.30
52651;BME280;38537;47.226;39.702;2023-04-04T05:14:00;100617.06;;;13.45;62.25
52651;BME280;38537;47.226;39.702;2023-04-04T05:16:33;100629.03;;;13.59;61.98
52651;BME280;38537;47.226;39.702;2023-04-04T05:19:01;100614.94;;;13.51;62.47
52651;BME280;38537;47.226;39.702;2023-04-04T05:21:35;100613.25;;;13.41;62.73
52651;BME280;38537;47.226;39.702;2023-04-04T05:24:05;100634.16;;;13.35;62.94
52651;BME280;38537;47.226;39.702;2023-04-04T05:26:36;100628.72;;;13.61;62.77
52651;BME280;38537;47.226;39.702;2023-04-04T05:29:05;100618.13;;;13.97;61.50
52651;BME280;38537;47.226;39.702;2023-04-04T05:31:32;100620.66;;;14.16;61.05
52651;BME280;38537;47.226;39.702;2023-04-04T05:34:05;100629.53;;;14.49;60.28
52651;BME280;38537;47.226;39.702;2023-04-04T05:36:36;100606.84;;;14.37;60.17
52651;BME280;38537;47.226;39.702;2023-04-04T05:39:05;100630.38;;;14.75;59.27
52651;BME280;38537;47.226;39.702;2023-04-04T05:41:39;100649.25;;;15.09;58.76
52651;BME280;38537;47.226;39.702;2023-04-04T05:44:15;100638.00;;;15.09;58.32
52651;BME280;38537;47.226;39.702;2023-04-04T05:46:43;100618.16;;;14.80;58.32
52651;BME280;38537;47.226;39.702;2023-04-04T05:49:11;100623.25;;;14.61;58.99
52651;BME280;38537;47.226;39.702;2023-04-04T05:51:44;100612.88;;;14.13;59.39
52651;BME280;38537;47.226;39.702;2023-04-04T05:54:13;100631.38;;;14.05;60.43
52651;BME280;38537;47.226;39.702;2023-04-04T05:56:42;100644.94;;;14.12;60.75
52651;BME280;38537;47.226;39.702;2023-04-04T05:59:17;100633.41;;;14.31;59.97
52651;BME280;38537;47.226;39.702;2023-04-04T06:01:53;100648.22;;;14.62;59.79
52651;BME280;38537;47.226;39.702;2023-04-04T06:04:21;100639.00;;;14.70;59.26
52651;BME280;38537;47.226;39.702;2023-04-04T06:06:49;100647.06;;;14.55;59.58
52651;BME280;38537;47.226;39.702;2023-04-04T06:09:19;100640.94;;;14.44;60.01
52651;BME280;38537;47.226;39.702;2023-04-04T06:11:46;100641.59;;;14.58;59.62
52651;BME280;38537;47.226;39.702;2023-04-04T06:14:15;100622.78;;;14.50;59.23
52651;BME280;38537;47.226;39.702;2023-04-04T06:16:43;100621.59;;;14.51;59.42
52651;BME280;38537;47.226;39.702;2023-04-04T06:19:12;100647.56;;;14.65;59.33
52651;BME280;38537;47.226;39.702;2023-04-04T06:21:40;100646.59;;;14.87;59.09
52651;BME280;38537;47.226;39.702;2023-04-04T06:24:08;100637.81;;;14.80;58.65
52651;BME280;38537;47.226;39.702;2023-04-04T06:26:36;100625.75;;;14.71;58.55
52651;BME280;38537;47.226;39.702;2023-04-04T06:29:03;100638.00;;;15.09;58.22
52651;BME280;38537;47.226;39.702;2023-04-04T06:31:33;100620.44;;;15.30;57.91
52651;BME280;38537;47.226;39.702;2023-04-04T06:34:06;100650.03;;;15.44;57.26
52651;BME280;38537;47.226;39.702;2023-04-04T06:36:47;100644.06;;;15.37;57.15
52651;BME280;38537;47.226;39.702;2023-04-04T06:39:15;100653.69;;;15.28;57.12
52651;BME280;38537;47.226;39.702;2023-04-04T06:41:44;100628.72;;;15.18;57.48
52651;BME280;38537;47.226;39.702;2023-04-04T06:44:12;100648.06;;;15.36;57.58
52651;BME280;38537;47.226;39.702;2023-04-04T06:46:40;100625.72;;;15.23;57.01
52651;BME280;38537;47.226;39.702;2023-04-04T06:49:07;100620.94;;;15.32;56.84
52651;BME280;38537;47.226;39.702;2023-04-04T06:51:35;100617.78;;;15.25;57.12
52651;BME280;38537;47.226;39.702;2023-04-04T06:54:02;100634.28;;;15.52;56.98
52651;BME280;38537;47.226;39.702;2023-04-04T06:56:29;100625.03;;;15.43;56.77
52651;BME280;38537;47.226;39.702;2023-04-04T06:58:56;100618.47;;;15.13;57.12
52651;BME280;38537;47.226;39.702;2023-04-04T07:01:25;100629.03;;;15.33;57.30
52651;BME280;38537;47.226;39.702;2023-04-04T07:03:52;100646.13;;;15.84;56.43
52651;BME280;38537;47.226;39.702;2023-04-04T07:06:23;100621.41;;;15.98;56.30
52651;BME280;38537;47.226;39.702;2023-04-04T07:08:52;100623.34;;;16.06;55.20
52651;BME280;38537;47.226;39.702;2023-04-04T07:11:19;100619.50;;;16.10;55.21
52651;BME280;38537;47.226;39.702;2023-04-04T07:13:49;100623.28;;;16.23;54.82
52651;BME280;38537;47.226;39.702;2023-04-04T07:16:17;100626.69;;;16.29;54.63
52651;BME280;38537;47.226;39.702;2023-04-04T07:18:44;100627.16;;;16.39;54.34
52651;BME280;38537;47.226;39.702;2023-04-04T07:21:12;100635.91;;;16.67;54.54
52651;BME280;38537;47.226;39.702;2023-04-04T07:23:39;100631.53;;;16.99;53.80
52651;BME280;38537;47.226;39.702;2023-04-04T07:26:06;100636.41;;;17.32;53.12
52651;BME280;38537;47.226;39.702;2023-04-04T07:28:34;100631.19;;;17.34;53.10
52651;BME280;38537;47.226;39.702;2023-04-04T07:31:01;100637.38;;;17.48;53.02
52651;BME280;38537;47.226;39.702;2023-04-04T07:33:29;100634.78;;;17.43;52.83
52651;BME280;38537;47.226;39.702;2023-04-04T07:35:56;100633.41;;;17.61;52.20
52651;BME280;38537;47.226;39.702;2023-04-04T07:38:24;100633.03;;;17.51;52.17
52651;BME280;38537;47.226;39.702;2023-04-04T07:40:51;100643.28;;;17.22;52.22
52651;BME280;38537;47.226;39.702;2023-04-04T07:43:18;100644.69;;;16.74;53.33
52651;BME280;38537;47.226;39.702;2023-04-04T07:45:46;100636.31;;;16.57;53.51
52651;BME280;38537;47.226;39.702;2023-04-04T07:48:13;100645.09;;;16.26;54.03
52651;BME280;38537;47.226;39.702;2023-04-04T07:50:40;100658.44;;;16.17;54.67
52651;BME280;38537;47.226;39.702;2023-04-04T07:53:07;100640.63;;;15.96;54.68
52651;BME280;38537;47.226;39.702;2023-04-04T07:55:34;100652.41;;;15.89;55.11
52651;BME280;38537;47.226;39.702;2023-04-04T07:58:02;100632.59;;;15.77;55.13
52651;BME280;38537;47.226;39.702;2023-04-04T08:00:29;100633.00;;;15.58;55.28
52651;BME280;38537;47.226;39.702;2023-04-04T08:02:56;100614.44;;;15.49;55.60
52651;BME280;38537;47.226;39.702;2023-04-04T08:05:27;100628.69;;;15.35;55.88
52651;BME280;38537;47.226;39.702;2023-04-04T08:07:54;100628.00;;;15.38;56.18
52651;BME280;38537;47.226;39.702;2023-04-04T08:10:22;100626.75;;;15.09;56.20
52651;BME280;38537;47.226;39.702;2023-04-04T08:12:49;100615.16;;;15.02;56.28
52651;BME280;38537;47.226;39.702;2023-04-04T08:15:16;100625.75;;;15.05;56.53
52651;BME280;38537;47.226;39.702;2023-04-04T08:17:43;100639.47;;;15.24;56.57
52651;BME280;38537;47.226;39.702;2023-04-04T08:20:11;100636.00;;;15.36;56.51
52651;BME280;38537;47.226;39.702;2023-04-04T08:22:40;100651.31;;;15.64;56.22
52651;BME280;38537;47.226;39.702;2023-04-04T08:25:08;100650.84;;;15.62;55.97
52651;BME280;38537;47.226;39.702;2023-04-04T08:27:39;100643.19;;;15.71;55.86
52651;BME280;38537;47.226;39.702;2023-04-04T08:30:07;100643.03;;;15.68;55.67
52651;BME280;38537;47.226;39.702;2023-04-04T08:32:35;100648.56;;;15.56;55.53
52651;BME280;38537;47.226;39.702;2023-04-04T08:35:02;100641.25;;;15.37;55.87
52651;BME280;38537;47.226;39.702;2023-04-04T08:37:29;100632.31;;;15.44;55.88
52651;BME280;38537;47.226;39.702;2023-04-04T08:39:56;100633.44;;;15.60;55.62
52651;BME280;38537;47.226;39.702;2023-04-04T08:42:27;100635.75;;;15.67;55.83
52651;BME280;38537;47.226;39.702;2023-04-04T08:44:56;100652.78;;;15.79;55.57
52651;BME280;38537;47.226;39.702;2023-04-04T08:47:26;100643.81;;;15.86;55.36
52651;BME280;38537;47.226;39.702;2023-04-04T08:49:58;100657.28;;;16.18;55.39
52651;BME280;38537;47.226;39.702;2023-04-04T08:52:27;100628.59;;;16.16;54.79
52651;BME280;38537;47.226;39.702;2023-04-04T08:54:56;100634.09;;;16.13;54.56
52651;BME280;38537;47.226;39.702;2023-04-04T08:57:24;100641.56;;;16.08;54.75
52651;BME280;38537;47.226;39.702;2023-04-04T08:59:52;100642.66;;;16.45;54.99
52651;BME280;38537;47.226;39.702;2023-04-04T09:04:52;100641.72;;;16.71;53.80
52651;BME280;38537;47.226;39.702;2023-04-04T09:07:34;100649.97;;;16.76;53.67
52651;BME280;38537;47.226;39.702;2023-04-04T09:10:07;100650.84;;;16.68;53.60
52651;BME280;38537;47.226;39.702;2023-04-04T09:12:36;100648.88;;;16.89;54.02
52651;BME280;38537;47.226;39.702;2023-04-04T09:15:04;100629.34;;;17.05;53.97
52651;BME280;38537;47.226;39.702;2023-04-04T09:17:31;100631.19;;;17.34;53.09
52651;BME280;38537;47.226;39.702;2023-04-04T09:20:02;100624.16;;;17.28;52.93
52651;BME280;38537;47.226;39.702;2023-04-04T09:22:30;100629.34;;;17.38;52.65
52651;BME280;38537;47.226;39.702;2023-04-04T09:24:58;100622.72;;;17.34;52.74
52651;BME280;38537;47.226;39.702;2023-04-04T09:27:25;100609.97;;;17.48;52.80
52651;BME280;38537;47.226;39.702;2023-04-04T09:29:52;100596.28;;;17.71;52.89
52651;BME280;38537;47.226;39.702;2023-04-04T09:32:20;100607.72;;;17.99;52.16
52651;BME280;38537;47.226;39.702;2023-04-04T09:34:49;100600.78;;;18.09;51.97
52651;BME280;38537;47.226;39.702;2023-04-04T09:37:16;100611.97;;;18.05;51.22
52651;BME280;38537;47.226;39.702;2023-04-04T09:39:44;100605.94;;;17.70;51.44
52651;BME280;38537;47.226;39.702;2023-04-04T09:42:13;100620.84;;;17.26;52.21
52651;BME280;38537;47.226;39.702;2023-04-04T09:44:41;100607.56;;;17.26;52.62
52651;BME280;38537;47.226;39.702;2023-04-04T09:47:25;100619.03;;;17.54;52.99
52651;BME280;38537;47.226;39.702;2023-04-04T09:49:57;100612.88;;;17.40;52.38
52651;BME280;38537;47.226;39.702;2023-04-04T09:52:25;100577.53;;;17.22;52.62
52651;BME280;38537;47.226;39.702;2023-04-04T09:54:59;100614.59;;;17.53;52.73
52651;BME280;38537;47.226;39.702;2023-04-04T09:57:33;100606.91;;;17.74;52.80
52651;BME280;38537;47.226;39.702;2023-04-04T10:00:03;100591.84;;;17.95;52.23
52651;BME280;38537;47.226;39.702;2023-04-04T10:02:38;100609.50;;;18.04;51.36
52651;BME280;38537;47.226;39.702;2023-04-04T10:05:10;100587.59;;;17.89;51.23
52651;BME280;38537;47.226;39.702;2023-04-04T10:07:39;100604.41;;;17.97;51.28
52651;BME280;38537;47.226;39.702;2023-04-04T10:10:08;100604.06;;;17.87;51.63
52651;BME280;38537;47.226;39.702;2023-04-04T10:12:36;100601.81;;;17.68;51.60
52651;BME280;38537;47.226;39.702;2023-04-04T10:15:04;100597.50;;;17.95;51.92
52651;BME280;38537;47.226;39.702;2023-04-04T10:17:39;100588.53;;;18.05;51.43
52651;BME280;38537;47.226;39.702;2023-04-04T10:20:08;100604.09;;;18.11;51.19
52651;BME280;38537;47.226;39.702;2023-04-04T10:22:36;100597.13;;;18.08;51.06
52651;BME280;38537;47.226;39.702;2023-04-04T10:25:05;100589.81;;;17.83;51.37
52651;BME280;38537;47.226;39.702;2023-04-04T10:27:33;100594.66;;;18.07;51.18
52651;BME280;38537;47.226;39.702;2023-04-04T10:30:01;100595.97;;;18.09;50.86
52651;BME280;38537;47.226;39.702;2023-04-04T10:32:49;100601.59;;;17.73;51.27
52651;BME280;38537;47.226;39.702;2023-04-04T10:35:21;100587.13;;;17.74;52.41
52651;BME280;38537;47.226;39.702;2023-04-04T10:37:56;100586.19;;;18.07;51.86
52651;BME280;38537;47.226;39.702;2023-04-04T10:40:30;100554.28;;;17.94;50.70
52651;BME280;38537;47.226;39.702;2023-04-04T10:43:06;100570.41;;;18.18;50.75
52651;BME280;38537;47.226;39.702;2023-04-04T10:45:35;100583.47;;;18.35;50.77
52651;BME280;38537;47.226;39.702;2023-04-04T10:48:05;100557.66;;;17.75;50.76
52651;BME280;38537;47.226;39.702;2023-04-04T10:50:37;100556.47;;;17.52;51.18
52651;BME280;38537;47.226;39.702;2023-04-04T10:53:06;100576.66;;;17.42;51.67
52651;BME280;38537;47.226;39.702;2023-04-04T10:55:35;100545.00;;;17.24;51.72
52651;BME280;38537;47.226;39.702;2023-04-04T10:58:04;100551.25;;;17.30;52.08
52651;BME280;38537;47.226;39.702;2023-04-04T11:00:48;100581.47;;;17.41;52.12
52651;BME280;38537;47.226;39.702;2023-04-04T11:03:17;100556.06;;;17.29;52.09
52651;BME280;38537;47.226;39.702;2023-04-04T11:05:45;100561.50;;;17.46;52.27
52651;BME280;38537;47.226;39.702;2023-04-04T11:08:17;100567.63;;;17.48;52.33
52651;BME280;38537;47.226;39.702;2023-04-04T11:10:51;100566.47;;;17.62;52.50
52651;BME280;38537;47.226;39.702;2023-04-04T11:13:40;100554.00;;;17.63;52.12
52651;BME280;38537;47.226;39.702;2023-04-04T11:16:10;100543.09;;;17.73;52.60
52651;BME280;38537;47.226;39.702;2023-04-04T11:21:16;100531.19;;;17.80;51.80
52651;BME280;38537;47.226;39.702;2023-04-04T11:29:02;100529.63;;;17.58;51.85
52651;BME280;38537;47.226;39.702;2023-04-04T11:31:41;100553.88;;;17.59;52.40
52651;BME280;38537;47.226;39.702;2023-04-04T11:34:11;100515.28;;;17.51;52.04
52651;BME280;38537;47.226;39.702;2023-04-04T11:42:11;100522.56;;;18.25;52.29
52651;BME280;38537;47.226;39.702;2023-04-04T11:47:22;100525.03;;;18.27;51.29
52651;BME280;38537;47.226;39.702;2023-04-04T11:49:52;100512.31;;;18.33;51.38
52651;BME280;38537;47.226;39.702;2023-04-04T11:52:19;100499.94;;;18.37;51.17
52651;BME280;38537;47.226;39.702;2023-04-04T11:54:48;100498.09;;;18.57;51.00
52651;BME280;38537;47.226;39.702;2023-04-04T11:57:18;100479.72;;;18.63;50.75
52651;BME280;38537;47.226;39.702;2023-04-04T11:59:46;100502.66;;;18.74;50.80
52651;BME280;38537;47.226;39.702;2023-04-04T12:02:25;100491.94;;;18.67;50.50
52651;BME280;38537;47.226;39.702;2023-04-04T12:05:00;100477.91;;;18.71;50.48
52651;BME280;38537;47.226;39.702;2023-04-04T12:07:29;100495.50;;;18.64;50.65
52651;BME280;38537;47.226;39.702;2023-04-04T12:09:56;100477.13;;;18.58;50.91
52651;BME280;38537;47.226;39.702;2023-04-04T12:12:25;100489.38;;;18.62;50.74
52651;BME280;38537;47.226;39.702;2023-04-04T12:14:54;100474.56;;;18.41;51.04
52651;BME280;38537;47.226;39.702;2023-04-04T12:17:41;100475.91;;;18.71;51.21
52651;BME280;38537;47.226;39.702;2023-04-04T12:20:10;100453.00;;;18.61;50.84
52651;BME280;38537;47.226;39.702;2023-04-04T12:22:37;100450.09;;;18.73;50.54
52651;BME280;38537;47.226;39.702;2023-04-04T12:25:06;100474.44;;;18.62;50.99
52651;BME280;38537;47.226;39.702;2023-04-04T12:27:33;100463.34;;;18.57;51.21
52651;BME280;38537;47.226;39.702;2023-04-04T12:30:01;100472.63;;;18.29;51.74
52651;BME280;38537;47.226;39.702;2023-04-04T12:32:30;100473.56;;;18.21;51.99
52651;BME280;38537;47.226;39.702;2023-04-04T12:35:01;100463.34;;;18.17;52.07
52651;BME280;38537;47.226;39.702;2023-04-04T12:37:29;100463.03;;;18.06;52.17
52651;BME280;38537;47.226;39.702;2023-04-04T12:39:56;100472.16;;;18.27;52.22
52651;BME280;38537;47.226;39.702;2023-04-04T12:42:25;100470.47;;;18.38;51.73
52651;BME280;38537;47.226;39.702;2023-04-04T12:44:52;100468.25;;;18.32;51.97
52651;BME280;38537;47.226;39.702;2023-04-04T12:47:21;100462.78;;;18.11;52.54
52651;BME280;38537;47.226;39.702;2023-04-04T12:49:51;100451.03;;;17.97;52.60
52651;BME280;38537;47.226;39.702;2023-04-04T12:52:27;100476.56;;;18.12;53.16
52651;BME280;38537;47.226;39.702;2023-04-04T12:55:06;100474.31;;;18.18;52.99
52651;BME280;38537;47.226;39.702;2023-04-04T12:57:39;100468.63;;;18.30;52.52
52651;BME280;38537;47.226;39.702;2023-04-04T13:00:07;100474.97;;;18.27;52.42
52651;BME280;38537;47.226;39.702;2023-04-04T13:02:37;100455.25;;;18.15;52.64
52651;BME280;38537;47.226;39.702;2023-04-04T13:05:05;100481.53;;;18.43;52.60
52651;BME280;38537;47.226;39.702;2023-04-04T13:07:35;100458.25;;;18.34;52.48
52651;BME280;38537;47.226;39.702;2023-04-04T13:10:12;100455.78;;;18.33;52.46